sensor_id;sensor_type;location;lat;lon;timestamp;pressure;altitude;pressure_sealevel;temperature;humidity
70976;BME280;58635;51.198;6.010;2022-07-12T00:01:03;102263.06;;;21.86;55.40
70976;BME280;58635;51.198;6.010;2022-07-12T00:03:29;102258.25;;;21.83;55.43
70976;BME280;58635;51.198;6.010;2022-07-12T00:05:54;102253.47;;;21.80;55.50
70976;BME280;58635;51.198;6.010;2022-07-12T00:08:20;102264.22;;;21.79;55.50
70976;BME280;58635;51.198;6.010;2022-07-12T00:10:45;102267.31;;;21.76;55.34
70976;BME280;58635;51.198;6.010;2022-07-12T00:13:11;102269.38;;;21.74;55.33
70976;BME280;58635;51.198;6.010;2022-07-12T00:15:36;102260.13;;;21.71;55.34
70976;BME280;58635;51.198;6.010;2022-07-12T00:18:02;102257.94;;;21.68;55.48
70976;BME280;58635;51.198;6.010;2022-07-12T00:20:28;102264.69;;;21.64;55.50
70976;BME280;58635;51.198;6.010;2022-07-12T00:22:54;102270.44;;;21.61;55.53
70976;BME280;58635;51.198;6.010;2022-07-12T00:25:20;102261.97;;;21.59;55.50
70976;BME280;58635;51.198;6.010;2022-07-12T00:27:45;102260.38;;;21.58;55.53
70976;BME280;58635;51.198;6.010;2022-07-12T00:30:11;102262.63;;;21.54;55.43
70976;BME280;58635;51.198;6.010;2022-07-12T00:32:36;102251.53;;;21.52;55.42
70976;BME280;58635;51.198;6.010;2022-07-12T00:35:02;102242.28;;;21.50;55.38
70976;BME280;58635;51.198;6.010;2022-07-12T00:37:28;102234.63;;;21.48;55.39
70976;BME280;58635;51.198;6.010;2022-07-12T00:39:53;102235.09;;;21.45;55.43
70976;BME280;58635;51.198;6.010;2022-07-12T00:42:20;102228.41;;;21.43;55.63
70976;BME280;58635;51.198;6.010;2022-07-12T00:44:45;102222.81;;;21.39;55.45
70976;BME280;58635;51.198;6.010;2022-07-12T00:47:25;102220.44;;;21.38;55.69
70976;BME280;58635;51.198;6.010;2022-07-12T00:49:53;102230.63;;;21.34;55.64
70976;BME280;58635;51.198;6.010;2022-07-12T00:52:18;102235.53;;;21.30;55.47
70976;BME280;58635;51.198;6.010;2022-07-12T00:54:44;102231.28;;;21.29;55.56
70976;BME280;58635;51.198;6.010;2022-07-12T00:57:09;102224.06;;;21.25;55.52
70976;BME280;58635;51.198;6.010;2022-07-12T00:59:35;102226.13;;;21.23;55.53
70976;BME280;58635;51.198;6.010;2022-07-12T01:02:01;102220.75;;;21.18;55.39
70976;BME280;58635;51.198;6.010;2022-07-12T01:04:26;102219.38;;;21.15;55.57
70976;BME280;58635;51.198;6.010;2022-07-12T01:06:53;102218.81;;;21.13;55.62
70976;BME280;58635;51.198;6.010;2022-07-12T01:09:18;102218.47;;;21.10;55.61
70976;BME280;58635;51.198;6.010;2022-07-12T01:11:44;102209.41;;;21.06;55.70
70976;BME280;58635;51.198;6.010;2022-07-12T01:14:10;102218.56;;;21.03;55.72
70976;BME280;58635;51.198;6.010;2022-07-12T01:16:36;102220.88;;;20.99;55.68
70976;BME280;58635;51.198;6.010;2022-07-12T01:19:04;102223.50;;;20.99;55.92
70976;BME280;58635;51.198;6.010;2022-07-12T01:21:36;102227.81;;;20.94;55.72
70976;BME280;58635;51.198;6.010;2022-07-12T01:24:04;102229.06;;;20.91;56.03
70976;BME280;58635;51.198;6.010;2022-07-12T01:26:30;102226.09;;;20.88;56.09
70976;BME280;58635;51.198;6.010;2022-07-12T01:28:57;102225.53;;;20.86;55.98
70976;BME280;58635;51.198;6.010;2022-07-12T01:31:23;102227.59;;;20.84;55.88
70976;BME280;58635;51.198;6.010;2022-07-12T01:33:49;102232.03;;;20.83;56.07
70976;BME280;58635;51.198;6.010;2022-07-12T01:36:16;102234.88;;;20.82;55.88
70976;BME280;58635;51.198;6.010;2022-07-12T01:38:42;102224.59;;;20.80;56.06
70976;BME280;58635;51.198;6.010;2022-07-12T01:41:07;102227.47;;;20.79;55.95
70976;BME280;58635;51.198;6.010;2022-07-12T01:43:33;102226.88;;;20.77;55.93
70976;BME280;58635;51.198;6.010;2022-07-12T01:45:58;102225.28;;;20.76;55.97
70976;BME280;58635;51.198;6.010;2022-07-12T01:48:24;102229.19;;;20.73;55.99
70976;BME280;58635;51.198;6.010;2022-07-12T01:50:49;102240.72;;;20.72;55.75
70976;BME280;58635;51.198;6.010;2022-07-12T01:53:15;102242.97;;;20.68;56.11
70976;BME280;58635;51.198;6.010;2022-07-12T01:55:40;102246.63;;;20.67;55.88
70976;BME280;58635;51.198;6.010;2022-07-12T01:58:06;102245.25;;;20.65;55.77
70976;BME280;58635;51.198;6.010;2022-07-12T02:00:32;102243.91;;;20.62;55.92
70976;BME280;58635;51.198;6.010;2022-07-12T02:02:57;102244.31;;;20.59;56.00
70976;BME280;58635;51.198;6.010;2022-07-12T02:05:23;102250.03;;;20.56;56.04
70976;BME280;58635;51.198;6.010;2022-07-12T02:07:49;102245.00;;;20.55;55.76
70976;BME280;58635;51.198;6.010;2022-07-12T02:10:15;102244.44;;;20.53;55.95
70976;BME280;58635;51.198;6.010;2022-07-12T02:12:40;102244.88;;;20.50;56.26
70976;BME280;58635;51.198;6.010;2022-07-12T02:15:07;102242.44;;;20.48;56.22
70976;BME280;58635;51.198;6.010;2022-07-12T02:17:33;102242.91;;;20.45;56.01
70976;BME280;58635;51.198;6.010;2022-07-12T02:19:58;102243.38;;;20.42;56.28
70976;BME280;58635;51.198;6.010;2022-07-12T02:22:23;102247.44;;;20.38;56.17
70976;BME280;58635;51.198;6.010;2022-07-12T02:24:49;102246.25;;;20.34;56.42
70976;BME280;58635;51.198;6.010;2022-07-12T02:27:16;102251.75;;;20.32;56.40
70976;BME280;58635;51.198;6.010;2022-07-12T02:29:41;102252.19;;;20.29;56.28
70976;BME280;58635;51.198;6.010;2022-07-12T02:32:07;102255.28;;;20.26;56.64
70976;BME280;58635;51.198;6.010;2022-07-12T02:34:32;102247.81;;;20.23;56.53
70976;BME280;58635;51.198;6.010;2022-07-12T02:36:58;102246.66;;;20.19;56.47
70976;BME280;58635;51.198;6.010;2022-07-12T02:39:23;102240.84;;;20.17;56.33
70976;BME280;58635;51.198;6.010;2022-07-12T02:41:48;102240.47;;;20.13;56.73
70976;BME280;58635;51.198;6.010;2022-07-12T02:44:14;102248.56;;;20.12;56.49
70976;BME280;58635;51.198;6.010;2022-07-12T02:46:39;102241.94;;;20.09;56.48
70976;BME280;58635;51.198;6.010;2022-07-12T02:49:04;102241.56;;;20.06;56.69
70976;BME280;58635;51.198;6.010;2022-07-12T02:51:30;102243.84;;;20.02;56.55
70976;BME280;58635;51.198;6.010;2022-07-12T02:53:55;102246.66;;;20.01;56.78
70976;BME280;58635;51.198;6.010;2022-07-12T02:56:21;102248.94;;;19.97;56.61
70976;BME280;58635;51.198;6.010;2022-07-12T02:58:46;102251.00;;;19.95;56.91
70976;BME280;58635;51.198;6.010;2022-07-12T03:01:11;102251.22;;;19.94;56.69
70976;BME280;58635;51.198;6.010;2022-07-12T03:03:38;102252.25;;;19.93;56.91
70976;BME280;58635;51.198;6.010;2022-07-12T03:06:03;102246.19;;;19.92;56.75
70976;BME280;58635;51.198;6.010;2022-07-12T03:08:29;102250.88;;;19.90;56.71
70976;BME280;58635;51.198;6.010;2022-07-12T03:10:54;102249.44;;;19.88;56.72
70976;BME280;58635;51.198;6.010;2022-07-12T03:13:20;102247.84;;;19.86;56.70
70976;BME280;58635;51.198;6.010;2022-07-12T03:15:45;102251.72;;;19.84;56.62
70976;BME280;58635;51.198;6.010;2022-07-12T03:18:11;102252.75;;;19.83;56.69
70976;BME280;58635;51.198;6.010;2022-07-12T03:20:36;102252.38;;;19.79;56.63
70976;BME280;58635;51.198;6.010;2022-07-12T03:23:02;102254.22;;;19.79;56.79
70976;BME280;58635;51.198;6.010;2022-07-12T03:25:27;102248.34;;;19.77;56.37
70976;BME280;58635;51.198;6.010;2022-07-12T03:27:52;102248.56;;;19.75;56.75
70976;BME280;58635;51.198;6.010;2022-07-12T03:30:19;102251.44;;;19.74;56.46
70976;BME280;58635;51.198;6.010;2022-07-12T03:32:44;102260.31;;;19.73;56.54
70976;BME280;58635;51.198;6.010;2022-07-12T03:35:10;102254.50;;;19.71;56.60
70976;BME280;58635;51.198;6.010;2022-07-12T03:40:09;102258.38;;;19.68;56.52
70976;BME280;58635;51.198;6.010;2022-07-12T03:42:35;102266.25;;;19.68;56.58
70976;BME280;58635;51.198;6.010;2022-07-12T03:45:01;102260.41;;;19.66;56.77
70976;BME280;58635;51.198;6.010;2022-07-12T03:47:26;102260.41;;;19.66;56.89
70976;BME280;58635;51.198;6.010;2022-07-12T03:49:52;102255.34;;;19.65;56.81
70976;BME280;58635;51.198;6.010;2022-07-12T03:52:17;102260.59;;;19.65;57.10
70976;BME280;58635;51.198;6.010;2022-07-12T03:54:43;102257.97;;;19.65;56.98
70976;BME280;58635;51.198;6.010;2022-07-12T03:57:08;102258.78;;;19.65;56.85
70976;BME280;58635;51.198;6.010;2022-07-12T03:59:40;102258.19;;;19.63;56.95
70976;BME280;58635;51.198;6.010;2022-07-12T04:02:06;102261.84;;;19.62;56.86
70976;BME280;58635;51.198;6.010;2022-07-12T04:04:31;102258.63;;;19.60;56.64
70976;BME280;58635;51.198;6.010;2022-07-12T04:06:56;102272.78;;;19.59;56.67
70976;BME280;58635;51.198;6.010;2022-07-12T04:09:22;102269.13;;;19.60;56.75
70976;BME280;58635;51.198;6.010;2022-07-12T04:11:47;102268.34;;;19.60;57.10
70976;BME280;58635;51.198;6.010;2022-07-12T04:14:13;102271.75;;;19.60;56.88
70976;BME280;58635;51.198;6.010;2022-07-12T04:16:38;102274.59;;;19.59;57.30
70976;BME280;58635;51.198;6.010;2022-07-12T04:19:04;102270.59;;;19.56;57.25
70976;BME280;58635;51.198;6.010;2022-07-12T04:21:31;102269.19;;;19.53;57.42
70976;BME280;58635;51.198;6.010;2022-07-12T04:23:56;102270.78;;;19.54;57.24
70976;BME280;58635;51.198;6.010;2022-07-12T04:26:21;102265.72;;;19.53;57.29
70976;BME280;58635;51.198;6.010;2022-07-12T04:28:47;102258.09;;;19.51;57.06
70976;BME280;58635;51.198;6.010;2022-07-12T04:31:12;102253.06;;;19.50;56.94
70976;BME280;58635;51.198;6.010;2022-07-12T04:33:38;102250.88;;;19.47;57.08
70976;BME280;58635;51.198;6.010;2022-07-12T04:36:03;102255.91;;;19.48;57.08
70976;BME280;58635;51.198;6.010;2022-07-12T04:38:29;102259.53;;;19.47;57.41
70976;BME280;58635;51.198;6.010;2022-07-12T04:40:54;102260.34;;;19.48;57.01
70976;BME280;58635;51.198;6.010;2022-07-12T04:43:19;102258.69;;;19.53;57.36
70976;BME280;58635;51.198;6.010;2022-07-12T04:45:45;102256.25;;;19.59;57.29
70976;BME280;58635;51.198;6.010;2022-07-12T04:48:13;102254.56;;;19.64;57.25
70976;BME280;58635;51.198;6.010;2022-07-12T04:50:38;102265.44;;;19.68;57.18
70976;BME280;58635;51.198;6.010;2022-07-12T04:53:04;102256.31;;;19.70;57.45
70976;BME280;58635;51.198;6.010;2022-07-12T04:55:29;102256.84;;;19.79;57.28
70976;BME280;58635;51.198;6.010;2022-07-12T04:57:55;102260.75;;;19.88;57.15
70976;BME280;58635;51.198;6.010;2022-07-12T05:00:21;102261.22;;;20.03;57.19
70976;BME280;58635;51.198;6.010;2022-07-12T05:02:46;102266.88;;;20.19;56.81
70976;BME280;58635;51.198;6.010;2022-07-12T05:05:12;102271.50;;;20.35;56.89
70976;BME280;58635;51.198;6.010;2022-07-12T05:07:38;102272.78;;;20.51;56.69
70976;BME280;58635;51.198;6.010;2022-07-12T05:10:04;102278.19;;;20.67;56.23
70976;BME280;58635;51.198;6.010;2022-07-12T05:12:29;102274.94;;;20.84;56.18
70976;BME280;58635;51.198;6.010;2022-07-12T05:14:55;102277.69;;;21.00;56.13
70976;BME280;58635;51.198;6.010;2022-07-12T05:17:20;102286.53;;;21.18;55.97
70976;BME280;58635;51.198;6.010;2022-07-12T05:19:45;102295.38;;;21.35;55.67
70976;BME280;58635;51.198;6.010;2022-07-12T05:22:11;102287.97;;;21.55;55.20
70976;BME280;58635;51.198;6.010;2022-07-12T05:24:36;102282.53;;;21.74;54.95
70976;BME280;58635;51.198;6.010;2022-07-12T05:27:02;102280.81;;;21.91;54.61
70976;BME280;58635;51.198;6.010;2022-07-12T05:29:27;102282.25;;;22.10;54.46
70976;BME280;58635;51.198;6.010;2022-07-12T05:31:56;102276.34;;;22.32;53.83
70976;BME280;58635;51.198;6.010;2022-07-12T05:34:22;102274.78;;;22.47;53.50
70976;BME280;58635;51.198;6.010;2022-07-12T05:36:48;102280.13;;;22.64;53.06
70976;BME280;58635;51.198;6.010;2022-07-12T05:39:13;102290.69;;;22.81;52.89
70976;BME280;58635;51.198;6.010;2022-07-12T05:41:39;102288.91;;;22.98;52.56
70976;BME280;58635;51.198;6.010;2022-07-12T05:44:04;102291.03;;;23.18;52.30
70976;BME280;58635;51.198;6.010;2022-07-12T05:46:30;102291.84;;;23.36;51.51
70976;BME280;58635;51.198;6.010;2022-07-12T05:48:56;102297.31;;;23.51;51.36
70976;BME280;58635;51.198;6.010;2022-07-12T05:51:21;102291.16;;;23.62;51.28
70976;BME280;58635;51.198;6.010;2022-07-12T05:54:05;102298.03;;;23.80;50.85
70976;BME280;58635;51.198;6.010;2022-07-12T05:56:30;102293.97;;;23.94;50.59
70976;BME280;58635;51.198;6.010;2022-07-12T05:58:56;102300.75;;;24.12;50.41
70976;BME280;58635;51.198;6.010;2022-07-12T06:01:21;102304.47;;;24.33;49.59
70976;BME280;58635;51.198;6.010;2022-07-12T06:03:46;102317.38;;;24.51;49.82
70976;BME280;58635;51.198;6.010;2022-07-12T06:06:12;102319.09;;;24.67;49.04
70976;BME280;58635;51.198;6.010;2022-07-12T06:08:37;102320.81;;;24.84;48.98
70976;BME280;58635;51.198;6.010;2022-07-12T06:11:03;102326.84;;;25.01;48.59
70976;BME280;58635;51.198;6.010;2022-07-12T06:13:28;102328.81;;;25.16;48.58
70976;BME280;58635;51.198;6.010;2022-07-12T06:15:54;102321.72;;;25.26;48.51
70976;BME280;58635;51.198;6.010;2022-07-12T06:18:21;102331.09;;;25.39;47.76
70976;BME280;58635;51.198;6.010;2022-07-12T06:20:46;102323.22;;;25.54;47.69
70976;BME280;58635;51.198;6.010;2022-07-12T06:23:12;102325.22;;;25.74;47.42
70976;BME280;58635;51.198;6.010;2022-07-12T06:25:38;102334.59;;;25.97;47.27
70976;BME280;58635;51.198;6.010;2022-07-12T06:28:04;102335.50;;;26.23;46.93
70976;BME280;58635;51.198;6.010;2022-07-12T06:30:30;102337.72;;;26.46;46.27
70976;BME280;58635;51.198;6.010;2022-07-12T06:32:55;102339.31;;;26.63;45.97
70976;BME280;58635;51.198;6.010;2022-07-12T06:35:21;102347.28;;;26.73;45.78
70976;BME280;58635;51.198;6.010;2022-07-12T06:37:46;102344.66;;;26.78;45.31
70976;BME280;58635;51.198;6.010;2022-07-12T06:40:12;102349.44;;;26.91;45.29
70976;BME280;58635;51.198;6.010;2022-07-12T06:42:37;102353.44;;;27.09;44.84
70976;BME280;58635;51.198;6.010;2022-07-12T06:45:03;102355.81;;;27.31;44.52
70976;BME280;58635;51.198;6.010;2022-07-12T06:47:29;102346.75;;;27.52;43.97
70976;BME280;58635;51.198;6.010;2022-07-12T06:49:55;102350.19;;;27.68;43.50
70976;BME280;58635;51.198;6.010;2022-07-12T06:52:20;102349.09;;;27.84;43.25
70976;BME280;58635;51.198;6.010;2022-07-12T06:54:46;102346.91;;;27.91;43.38
70976;BME280;58635;51.198;6.010;2022-07-12T06:57:11;102354.66;;;27.88;43.06
70976;BME280;58635;51.198;6.010;2022-07-12T06:59:36;102349.84;;;27.95;43.00
70976;BME280;58635;51.198;6.010;2022-07-12T07:02:02;102348.44;;;28.13;42.65
70976;BME280;58635;51.198;6.010;2022-07-12T07:04:27;102341.72;;;28.31;42.42
70976;BME280;58635;51.198;6.010;2022-07-12T07:06:53;102347.41;;;28.53;42.18
70976;BME280;58635;51.198;6.010;2022-07-12T07:09:18;102348.13;;;28.69;42.07
70976;BME280;58635;51.198;6.010;2022-07-12T07:11:44;102356.06;;;28.79;41.75
70976;BME280;58635;51.198;6.010;2022-07-12T07:14:10;102352.53;;;28.83;41.62
70976;BME280;58635;51.198;6.010;2022-07-12T07:16:36;102359.97;;;28.92;41.36
70976;BME280;58635;51.198;6.010;2022-07-12T07:19:01;102367.03;;;29.06;41.00
70976;BME280;58635;51.198;6.010;2022-07-12T07:21:28;102364.00;;;29.18;41.19
70976;BME280;58635;51.198;6.010;2022-07-12T07:23:53;102363.94;;;29.23;40.58
70976;BME280;58635;51.198;6.010;2022-07-12T07:26:19;102360.97;;;29.30;40.65
70976;BME280;58635;51.198;6.010;2022-07-12T07:28:45;102363.56;;;29.35;40.26
70976;BME280;58635;51.198;6.010;2022-07-12T07:31:29;102359.22;;;29.44;40.45
70976;BME280;58635;51.198;6.010;2022-07-12T07:33:54;102358.06;;;29.55;39.79
70976;BME280;58635;51.198;6.010;2022-07-12T07:36:20;102356.38;;;29.64;39.91
70976;BME280;58635;51.198;6.010;2022-07-12T07:38:45;102360.84;;;29.69;39.59
70976;BME280;58635;51.198;6.010;2022-07-12T07:41:10;102360.16;;;29.82;39.86
70976;BME280;58635;51.198;6.010;2022-07-12T07:43:36;102349.06;;;29.94;38.97
70976;BME280;58635;51.198;6.010;2022-07-12T07:46:02;102364.34;;;30.12;39.33
70976;BME280;58635;51.198;6.010;2022-07-12T07:48:28;102360.47;;;30.23;39.20
70976;BME280;58635;51.198;6.010;2022-07-12T07:50:54;102362.69;;;30.35;38.71
70976;BME280;58635;51.198;6.010;2022-07-12T07:53:19;102368.09;;;30.49;38.31
70976;BME280;58635;51.198;6.010;2022-07-12T07:55:45;102365.50;;;30.63;38.06
70976;BME280;58635;51.198;6.010;2022-07-12T07:58:10;102362.69;;;30.73;38.26
70976;BME280;58635;51.198;6.010;2022-07-12T08:00:35;102362.53;;;30.83;37.53
70976;BME280;58635;51.198;6.010;2022-07-12T08:03:01;102361.88;;;30.91;37.38
70976;BME280;58635;51.198;6.010;2022-07-12T08:05:26;102364.75;;;30.95;37.29
70976;BME280;58635;51.198;6.010;2022-07-12T08:07:51;102358.50;;;30.99;37.19
70976;BME280;58635;51.198;6.010;2022-07-12T08:10:17;102360.88;;;31.01;36.78
70976;BME280;58635;51.198;6.010;2022-07-12T08:12:42;102360.19;;;30.95;37.46
70976;BME280;58635;51.198;6.010;2022-07-12T08:15:08;102357.41;;;30.87;37.10
70976;BME280;58635;51.198;6.010;2022-07-12T08:17:34;102361.03;;;30.77;37.16
70976;BME280;58635;51.198;6.010;2022-07-12T08:20:02;102349.44;;;30.68;37.07
70976;BME280;58635;51.198;6.010;2022-07-12T08:22:28;102351.16;;;30.59;37.39
70976;BME280;58635;51.198;6.010;2022-07-12T08:24:53;102343.56;;;30.47;37.47
70976;BME280;58635;51.198;6.010;2022-07-12T08:27:19;102339.19;;;30.37;37.23
70976;BME280;58635;51.198;6.010;2022-07-12T08:29:44;102344.44;;;30.23;37.85
70976;BME280;58635;51.198;6.010;2022-07-12T08:32:09;102338.16;;;30.14;37.22
70976;BME280;58635;51.198;6.010;2022-07-12T08:34:35;102328.91;;;30.07;37.55
70976;BME280;58635;51.198;6.010;2022-07-12T08:37:00;102329.72;;;30.07;37.11
70976;BME280;58635;51.198;6.010;2022-07-12T08:39:25;102331.03;;;30.10;37.08
70976;BME280;58635;51.198;6.010;2022-07-12T08:41:51;102328.78;;;30.17;36.83
70976;BME280;58635;51.198;6.010;2022-07-12T08:44:16;102334.06;;;30.22;36.34
70976;BME280;58635;51.198;6.010;2022-07-12T08:46:42;102331.03;;;30.28;36.07
70976;BME280;58635;51.198;6.010;2022-07-12T08:49:07;102330.16;;;30.33;35.26
70976;BME280;58635;51.198;6.010;2022-07-12T08:51:33;102325.91;;;30.32;35.60
70976;BME280;58635;51.198;6.010;2022-07-12T08:54:09;102322.38;;;30.37;34.60
70976;BME280;58635;51.198;6.010;2022-07-12T08:56:41;102326.81;;;30.41;34.73
70976;BME280;58635;51.198;6.010;2022-07-12T08:59:18;102330.53;;;30.45;34.78
70976;BME280;58635;51.198;6.010;2022-07-12T09:01:53;102336.22;;;30.39;35.23
70976;BME280;58635;51.198;6.010;2022-07-12T09:04:20;102330.97;;;30.34;34.95
70976;BME280;58635;51.198;6.010;2022-07-12T09:06:46;102341.63;;;30.34;34.86
70976;BME280;58635;51.198;6.010;2022-07-12T09:09:25;102343.28;;;30.30;34.93
70976;BME280;58635;51.198;6.010;2022-07-12T09:11:51;102335.16;;;30.21;35.34
70976;BME280;58635;51.198;6.010;2022-07-12T09:14:20;102340.19;;;30.22;35.61
70976;BME280;58635;51.198;6.010;2022-07-12T09:17:21;102342.28;;;30.25;34.97
70976;BME280;58635;51.198;6.010;2022-07-12T09:19:55;102340.09;;;30.27;35.49
70976;BME280;58635;51.198;6.010;2022-07-12T09:22:21;102347.03;;;30.28;35.12
70976;BME280;58635;51.198;6.010;2022-07-12T09:24:46;102336.34;;;30.28;34.83
70976;BME280;58635;51.198;6.010;2022-07-12T09:27:12;102353.97;;;30.30;34.86
70976;BME280;58635;51.198;6.010;2022-07-12T09:29:48;102354.97;;;30.34;34.79
70976;BME280;58635;51.198;6.010;2022-07-12T09:32:14;102352.53;;;30.37;35.29
70976;BME280;58635;51.198;6.010;2022-07-12T09:34:58;102356.44;;;30.45;34.92
70976;BME280;58635;51.198;6.010;2022-07-12T09:37:43;102354.66;;;30.54;34.86
70976;BME280;58635;51.198;6.010;2022-07-12T09:40:09;102357.22;;;30.64;34.69
70976;BME280;58635;51.198;6.010;2022-07-12T09:42:35;102355.78;;;30.72;34.21
70976;BME280;58635;51.198;6.010;2022-07-12T09:45:01;102355.47;;;30.73;34.60
70976;BME280;58635;51.198;6.010;2022-07-12T09:47:27;102356.47;;;30.77;34.17
70976;BME280;58635;51.198;6.010;2022-07-12T09:49:53;102345.09;;;30.72;33.83
70976;BME280;58635;51.198;6.010;2022-07-12T09:52:24;102347.09;;;30.61;34.46
70976;BME280;58635;51.198;6.010;2022-07-12T09:54:51;102351.09;;;30.64;34.05
70976;BME280;58635;51.198;6.010;2022-07-12T09:57:25;102351.56;;;30.66;33.83
70976;BME280;58635;51.198;6.010;2022-07-12T09:59:52;102351.22;;;30.72;34.21
70976;BME280;58635;51.198;6.010;2022-07-12T10:02:18;102346.88;;;30.76;33.96
70976;BME280;58635;51.198;6.010;2022-07-12T10:04:45;102335.63;;;30.79;34.17
70976;BME280;58635;51.198;6.010;2022-07-12T10:07:11;102332.66;;;30.81;33.68
70976;BME280;58635;51.198;6.010;2022-07-12T10:09:46;102330.47;;;30.83;33.63
70976;BME280;58635;51.198;6.010;2022-07-12T10:12:15;102332.25;;;30.88;33.50
70976;BME280;58635;51.198;6.010;2022-07-12T10:14:42;102329.41;;;30.98;33.65
70976;BME280;58635;51.198;6.010;2022-07-12T10:17:08;102333.81;;;31.07;33.05
70976;BME280;58635;51.198;6.010;2022-07-12T10:19:36;102335.81;;;31.16;32.46
70976;BME280;58635;51.198;6.010;2022-07-12T10:22:19;102337.81;;;31.24;32.68
70976;BME280;58635;51.198;6.010;2022-07-12T10:24:50;102343.25;;;31.32;32.24
70976;BME280;58635;51.198;6.010;2022-07-12T10:29:49;102333.94;;;31.57;31.28
70976;BME280;58635;51.198;6.010;2022-07-12T10:32:24;102330.91;;;31.64;30.73
70976;BME280;58635;51.198;6.010;2022-07-12T10:35:03;102332.47;;;31.65;30.51
70976;BME280;58635;51.198;6.010;2022-07-12T10:37:30;102332.47;;;31.65;31.00
70976;BME280;58635;51.198;6.010;2022-07-12T10:40:16;102335.53;;;31.72;30.70
70976;BME280;58635;51.198;6.010;2022-07-12T10:45:32;102330.78;;;31.83;30.77
70976;BME280;58635;51.198;6.010;2022-07-12T10:48:01;102323.16;;;31.90;30.55
70976;BME280;58635;51.198;6.010;2022-07-12T10:56:19;102306.59;;;32.24;30.17
70976;BME280;58635;51.198;6.010;2022-07-12T10:58:50;102312.06;;;32.33;30.56
70976;BME280;58635;51.198;6.010;2022-07-12T11:01:24;102305.06;;;32.45;29.98
70976;BME280;58635;51.198;6.010;2022-07-12T11:04:04;102312.41;;;32.62;29.95
70976;BME280;58635;51.198;6.010;2022-07-12T11:06:30;102309.81;;;32.79;29.57
70976;BME280;58635;51.198;6.010;2022-07-12T11:11:33;102298.69;;;33.17;29.24
70976;BME280;58635;51.198;6.010;2022-07-12T11:14:01;102301.13;;;33.36;28.79
70976;BME280;58635;51.198;6.010;2022-07-12T11:16:28;102302.41;;;33.47;28.69
70976;BME280;58635;51.198;6.010;2022-07-12T11:18:55;102300.09;;;33.54;28.85
70976;BME280;58635;51.198;6.010;2022-07-12T11:21:21;102303.41;;;33.68;28.51
70976;BME280;58635;51.198;6.010;2022-07-12T11:23:47;102306.75;;;33.83;27.96
70976;BME280;58635;51.198;6.010;2022-07-12T11:26:13;102299.06;;;33.90;27.96
70976;BME280;58635;51.198;6.010;2022-07-12T11:28:41;102299.53;;;34.00;27.67
70976;BME280;58635;51.198;6.010;2022-07-12T11:33:39;102281.97;;;34.29;27.13
70976;BME280;58635;51.198;6.010;2022-07-12T11:36:06;102290.03;;;34.46;26.57
70976;BME280;58635;51.198;6.010;2022-07-12T11:38:33;102281.13;;;34.63;26.55
70976;BME280;58635;51.198;6.010;2022-07-12T11:41:01;102282.81;;;34.76;26.20
70976;BME280;58635;51.198;6.010;2022-07-12T11:43:27;102270.94;;;34.86;26.06
70976;BME280;58635;51.198;6.010;2022-07-12T11:45:53;102268.56;;;34.93;25.99
70976;BME280;58635;51.198;6.010;2022-07-12T11:48:20;102281.69;;;34.95;25.86
70976;BME280;58635;51.198;6.010;2022-07-12T11:50:46;102279.78;;;34.95;25.59
70976;BME280;58635;51.198;6.010;2022-07-12T11:53:25;102275.31;;;35.08;25.53
70976;BME280;58635;51.198;6.010;2022-07-12T11:55:55;102280.72;;;35.29;25.77
70976;BME280;58635;51.198;6.010;2022-07-12T11:58:23;102280.97;;;35.44;25.08
70976;BME280;58635;51.198;6.010;2022-07-12T12:00:50;102278.81;;;35.59;25.43
70976;BME280;58635;51.198;6.010;2022-07-12T12:03:17;102273.88;;;35.61;24.75
70976;BME280;58635;51.198;6.010;2022-07-12T12:05:45;102269.94;;;35.58;24.57
70976;BME280;58635;51.198;6.010;2022-07-12T12:08:12;102261.75;;;35.55;24.12
70976;BME280;58635;51.198;6.010;2022-07-12T12:10:40;102266.47;;;35.58;23.61
70976;BME280;58635;51.198;6.010;2022-07-12T12:13:12;102264.31;;;35.72;24.16
70976;BME280;58635;51.198;6.010;2022-07-12T12:15:38;102267.19;;;35.67;23.91
70976;BME280;58635;51.198;6.010;2022-07-12T12:18:07;102265.22;;;35.55;23.98
70976;BME280;58635;51.198;6.010;2022-07-12T12:20:40;102267.78;;;35.52;24.85
70976;BME280;58635;51.198;6.010;2022-07-12T12:23:19;102269.09;;;35.45;24.69
70976;BME280;58635;51.198;6.010;2022-07-12T12:25:45;102275.59;;;35.36;24.62
70976;BME280;58635;51.198;6.010;2022-07-12T12:28:11;102265.56;;;35.24;24.63
70976;BME280;58635;51.198;6.010;2022-07-12T12:30:54;102266.34;;;35.25;24.34
70976;BME280;58635;51.198;6.010;2022-07-12T12:33:42;102263.75;;;35.37;24.63
70976;BME280;58635;51.198;6.010;2022-07-12T12:36:22;102255.59;;;35.54;24.33
70976;BME280;58635;51.198;6.010;2022-07-12T12:38:50;102255.38;;;35.80;23.84
70976;BME280;58635;51.198;6.010;2022-07-12T12:41:16;102250.00;;;36.01;22.81
70976;BME280;58635;51.198;6.010;2022-07-12T12:43:42;102245.63;;;36.09;22.89
70976;BME280;58635;51.198;6.010;2022-07-12T12:46:08;102246.22;;;36.14;23.41
70976;BME280;58635;51.198;6.010;2022-07-12T12:48:34;102239.81;;;36.19;23.40
70976;BME280;58635;51.198;6.010;2022-07-12T12:51:04;102237.06;;;36.27;22.93
70976;BME280;58635;51.198;6.010;2022-07-12T12:53:29;102229.47;;;36.42;22.78
70976;BME280;58635;51.198;6.010;2022-07-12T12:55:56;102232.28;;;36.57;22.81
70976;BME280;58635;51.198;6.010;2022-07-12T12:58:23;102228.50;;;36.71;22.41
70976;BME280;58635;51.198;6.010;2022-07-12T13:00:50;102222.09;;;36.75;21.97
70976;BME280;58635;51.198;6.010;2022-07-12T13:03:18;102218.94;;;36.73;21.31
70976;BME280;58635;51.198;6.010;2022-07-12T13:05:44;102215.47;;;36.73;21.38
70976;BME280;58635;51.198;6.010;2022-07-12T13:08:11;102227.91;;;36.65;21.30